sensor_id;sensor_type;location;lat;lon;timestamp;pressure;altitude;pressure_sealevel;temperature
10058;BMP180;5068;51.286;7.518;2023-04-24T00:00:12;97887.00;;;13.90
10058;BMP180;5068;51.286;7.518;2023-04-24T00:01:46;97888.00;;;13.90
10058;BMP180;5068;51.286;7.518;2023-04-24T00:03:19;97894.00;;;13.90
10058;BMP180;5068;51.286;7.518;2023-04-24T00:04:54;97896.00;;;13.90
10058;BMP180;5068;51.286;7.518;2023-04-24T00:06:27;97887.00;;;13.90
10058;BMP180;5068;51.286;7.518;2023-04-24T00:08:04;97886.00;;;13.90
10058;BMP180;5068;51.286;7.518;2023-04-24T00:09:38;97890.00;;;13.90
10058;BMP180;5068;51.286;7.518;2023-04-24T00:11:12;97892.00;;;13.90
10058;BMP180;5068;51.286;7.518;2023-04-24T00:12:44;97882.00;;;13.90
10058;BMP180;5068;51.286;7.518;2023-04-24T00:14:19;97882.00;;;13.90
10058;BMP180;5068;51.286;7.518;2023-04-24T00:15:52;97882.00;;;13.90
10058;BMP180;5068;51.286;7.518;2023-04-24T00:17:24;97886.00;;;13.90
10058;BMP180;5068;51.286;7.518;2023-04-24T00:18:57;97881.00;;;13.90
10058;BMP180;5068;51.286;7.518;2023-04-24T00:20:30;97881.00;;;13.90
10058;BMP180;5068;51.286;7.518;2023-04-24T00:22:04;97889.00;;;13.90
10058;BMP180;5068;51.286;7.518;2023-04-24T00:23:37;97878.00;;;13.90
10058;BMP180;5068;51.286;7.518;2023-04-24T00:25:10;97885.00;;;13.90
10058;BMP180;5068;51.286;7.518;2023-04-24T00:26:44;97882.00;;;13.90
10058;BMP180;5068;51.286;7.518;2023-04-24T00:28:17;97884.00;;;13.90
10058;BMP180;5068;51.286;7.518;2023-04-24T00:29:51;97886.00;;;13.80
10058;BMP180;5068;51.286;7.518;2023-04-24T00:31:24;97879.00;;;13.80
10058;BMP180;5068;51.286;7.518;2023-04-24T00:32:58;97880.00;;;13.80
10058;BMP180;5068;51.286;7.518;2023-04-24T00:34:31;97887.00;;;13.80
10058;BMP180;5068;51.286;7.518;2023-04-24T00:36:05;97881.00;;;13.80
10058;BMP180;5068;51.286;7.518;2023-04-24T00:37:39;97882.00;;;13.80
10058;BMP180;5068;51.286;7.518;2023-04-24T00:39:15;97876.00;;;13.80
10058;BMP180;5068;51.286;7.518;2023-04-24T00:40:48;97882.00;;;13.80
10058;BMP180;5068;51.286;7.518;2023-04-24T00:42:22;97883.00;;;13.80
10058;BMP180;5068;51.286;7.518;2023-04-24T00:43:55;97888.00;;;13.90
10058;BMP180;5068;51.286;7.518;2023-04-24T00:45:30;97879.00;;;13.90
10058;BMP180;5068;51.286;7.518;2023-04-24T00:47:04;97876.00;;;13.90
10058;BMP180;5068;51.286;7.518;2023-04-24T00:48:39;97878.00;;;13.90
10058;BMP180;5068;51.286;7.518;2023-04-24T00:50:15;97872.00;;;13.90
10058;BMP180;5068;51.286;7.518;2023-04-24T00:51:48;97880.00;;;13.90
10058;BMP180;5068;51.286;7.518;2023-04-24T00:53:23;97882.00;;;14.00
10058;BMP180;5068;51.286;7.518;2023-04-24T00:54:56;97880.00;;;14.00
10058;BMP180;5068;51.286;7.518;2023-04-24T00:56:30;97877.00;;;14.00
10058;BMP180;5068;51.286;7.518;2023-04-24T00:58:04;97879.00;;;14.00
10058;BMP180;5068;51.286;7.518;2023-04-24T00:59:38;97874.00;;;14.00
10058;BMP180;5068;51.286;7.518;2023-04-24T01:01:12;97875.00;;;14.00
10058;BMP180;5068;51.286;7.518;2023-04-24T01:02:47;97866.00;;;14.00
10058;BMP180;5068;51.286;7.518;2023-04-24T01:04:20;97875.00;;;14.00
10058;BMP180;5068;51.286;7.518;2023-04-24T01:05:55;97870.00;;;14.00
10058;BMP180;5068;51.286;7.518;2023-04-24T01:07:29;97868.00;;;14.00
10058;BMP180;5068;51.286;7.518;2023-04-24T01:09:03;97868.00;;;14.00
10058;BMP180;5068;51.286;7.518;2023-04-24T01:10:38;97867.00;;;14.00
10058;BMP180;5068;51.286;7.518;2023-04-24T01:12:13;97861.00;;;14.00
10058;BMP180;5068;51.286;7.518;2023-04-24T01:13:49;97864.00;;;14.00
10058;BMP180;5068;51.286;7.518;2023-04-24T01:15:22;97864.00;;;14.00
10058;BMP180;5068;51.286;7.518;2023-04-24T01:16:57;97872.00;;;14.00
10058;BMP180;5068;51.286;7.518;2023-04-24T01:18:32;97852.00;;;14.00
10058;BMP180;5068;51.286;7.518;2023-04-24T01:20:06;97855.00;;;14.00
10058;BMP180;5068;51.286;7.518;2023-04-24T01:21:39;97859.00;;;14.00
10058;BMP180;5068;51.286;7.518;2023-04-24T01:23:15;97869.00;;;14.00
10058;BMP180;5068;51.286;7.518;2023-04-24T01:24:49;97864.00;;;13.90
10058;BMP180;5068;51.286;7.518;2023-04-24T01:26:22;97871.00;;;13.90
10058;BMP180;5068;51.286;7.518;2023-04-24T01:27:57;97868.00;;;13.90
10058;BMP180;5068;51.286;7.518;2023-04-24T01:29:31;97852.00;;;13.90
10058;BMP180;5068;51.286;7.518;2023-04-24T01:31:04;97861.00;;;13.90
10058;BMP180;5068;51.286;7.518;2023-04-24T01:32:38;97862.00;;;13.90
10058;BMP180;5068;51.286;7.518;2023-04-24T01:34:11;97859.00;;;13.90
10058;BMP180;5068;51.286;7.518;2023-04-24T01:35:45;97855.00;;;13.90
10058;BMP180;5068;51.286;7.518;2023-04-24T01:37:18;97868.00;;;13.90
10058;BMP180;5068;51.286;7.518;2023-04-24T01:38:52;97875.00;;;13.90
10058;BMP180;5068;51.286;7.518;2023-04-24T01:40:26;97865.00;;;13.90
10058;BMP180;5068;51.286;7.518;2023-04-24T01:41:58;97859.00;;;13.90
10058;BMP180;5068;51.286;7.518;2023-04-24T01:43:32;97867.00;;;13.90
10058;BMP180;5068;51.286;7.518;2023-04-24T01:45:09;97869.00;;;13.90
10058;BMP180;5068;51.286;7.518;2023-04-24T01:46:42;97873.00;;;13.90
10058;BMP180;5068;51.286;7.518;2023-04-24T01:48:16;97870.00;;;13.90
10058;BMP180;5068;51.286;7.518;2023-04-24T01:49:49;97859.00;;;14.00
10058;BMP180;5068;51.286;7.518;2023-04-24T01:51:23;97862.00;;;14.00
10058;BMP180;5068;51.286;7.518;2023-04-24T01:52:56;97865.00;;;14.00
10058;BMP180;5068;51.286;7.518;2023-04-24T01:54:31;97852.00;;;14.00
10058;BMP180;5068;51.286;7.518;2023-04-24T01:56:05;97857.00;;;14.00
10058;BMP180;5068;51.286;7.518;2023-04-24T01:57:38;97851.00;;;14.00
10058;BMP180;5068;51.286;7.518;2023-04-24T01:59:12;97853.00;;;14.00
10058;BMP180;5068;51.286;7.518;2023-04-24T02:00:47;97855.00;;;14.00
10058;BMP180;5068;51.286;7.518;2023-04-24T02:02:20;97852.00;;;14.00
10058;BMP180;5068;51.286;7.518;2023-04-24T02:03:56;97853.00;;;14.00
10058;BMP180;5068;51.286;7.518;2023-04-24T02:05:29;97852.00;;;14.00
10058;BMP180;5068;51.286;7.518;2023-04-24T02:07:02;97859.00;;;14.00
10058;BMP180;5068;51.286;7.518;2023-04-24T02:08:36;97866.00;;;13.90
10058;BMP180;5068;51.286;7.518;2023-04-24T02:10:12;97864.00;;;13.90
10058;BMP180;5068;51.286;7.518;2023-04-24T02:11:47;97869.00;;;13.90
10058;BMP180;5068;51.286;7.518;2023-04-24T02:13:20;97864.00;;;13.90
10058;BMP180;5068;51.286;7.518;2023-04-24T02:14:52;97870.00;;;13.90
10058;BMP180;5068;51.286;7.518;2023-04-24T02:16:26;97866.00;;;13.90
10058;BMP180;5068;51.286;7.518;2023-04-24T02:17:59;97874.00;;;13.80
10058;BMP180;5068;51.286;7.518;2023-04-24T02:19:32;97867.00;;;13.80
10058;BMP180;5068;51.286;7.518;2023-04-24T02:21:06;97879.00;;;13.80
10058;BMP180;5068;51.286;7.518;2023-04-24T02:22:38;97878.00;;;13.80
10058;BMP180;5068;51.286;7.518;2023-04-24T02:24:11;97876.00;;;13.80
10058;BMP180;5068;51.286;7.518;2023-04-24T02:25:45;97885.00;;;13.70
10058;BMP180;5068;51.286;7.518;2023-04-24T02:27:19;97887.00;;;13.70
10058;BMP180;5068;51.286;7.518;2023-04-24T02:28:52;97877.00;;;13.70
10058;BMP180;5068;51.286;7.518;2023-04-24T02:30:25;97879.00;;;13.70
10058;BMP180;5068;51.286;7.518;2023-04-24T02:31:58;97884.00;;;13.70
10058;BMP180;5068;51.286;7.518;2023-04-24T02:33:32;97887.00;;;13.60
10058;BMP180;5068;51.286;7.518;2023-04-24T02:35:06;97887.00;;;13.50
10058;BMP180;5068;51.286;7.518;2023-04-24T02:36:39;97882.00;;;13.50
10058;BMP180;5068;51.286;7.518;2023-04-24T02:38:13;97883.00;;;13.50
10058;BMP180;5068;51.286;7.518;2023-04-24T02:39:48;97888.00;;;13.50
10058;BMP180;5068;51.286;7.518;2023-04-24T02:41:22;97891.00;;;13.40
10058;BMP180;5068;51.286;7.518;2023-04-24T02:42:55;97896.00;;;13.40
10058;BMP180;5068;51.286;7.518;2023-04-24T02:44:29;97889.00;;;13.40
10058;BMP180;5068;51.286;7.518;2023-04-24T02:46:02;97874.00;;;13.40
10058;BMP180;5068;51.286;7.518;2023-04-24T02:47:35;97889.00;;;13.40
10058;BMP180;5068;51.286;7.518;2023-04-24T02:49:08;97879.00;;;13.30
10058;BMP180;5068;51.286;7.518;2023-04-24T02:50:41;97896.00;;;13.30
10058;BMP180;5068;51.286;7.518;2023-04-24T02:52:14;97892.00;;;13.30
10058;BMP180;5068;51.286;7.518;2023-04-24T02:53:48;97893.00;;;13.30
10058;BMP180;5068;51.286;7.518;2023-04-24T02:55:22;97891.00;;;13.30
10058;BMP180;5068;51.286;7.518;2023-04-24T02:56:56;97891.00;;;13.30
10058;BMP180;5068;51.286;7.518;2023-04-24T02:58:29;97899.00;;;13.30
10058;BMP180;5068;51.286;7.518;2023-04-24T03:00:03;97889.00;;;13.30
10058;BMP180;5068;51.286;7.518;2023-04-24T03:01:39;97896.00;;;13.30
10058;BMP180;5068;51.286;7.518;2023-04-24T03:03:12;97903.00;;;13.20
10058;BMP180;5068;51.286;7.518;2023-04-24T03:04:46;97909.00;;;13.20
10058;BMP180;5068;51.286;7.518;2023-04-24T03:06:20;97909.00;;;13.20
10058;BMP180;5068;51.286;7.518;2023-04-24T03:07:53;97905.00;;;13.10
10058;BMP180;5068;51.286;7.518;2023-04-24T03:09:27;97901.00;;;13.10
10058;BMP180;5068;51.286;7.518;2023-04-24T03:10:59;97910.00;;;13.10
10058;BMP180;5068;51.286;7.518;2023-04-24T03:12:33;97902.00;;;13.00
10058;BMP180;5068;51.286;7.518;2023-04-24T03:14:07;97916.00;;;13.00
10058;BMP180;5068;51.286;7.518;2023-04-24T03:15:42;97905.00;;;12.90
10058;BMP180;5068;51.286;7.518;2023-04-24T03:17:15;97912.00;;;12.90
10058;BMP180;5068;51.286;7.518;2023-04-24T03:18:48;97915.00;;;12.90
10058;BMP180;5068;51.286;7.518;2023-04-24T03:20:23;97930.00;;;12.90
10058;BMP180;5068;51.286;7.518;2023-04-24T03:21:57;97928.00;;;12.80
10058;BMP180;5068;51.286;7.518;2023-04-24T03:23:30;97928.00;;;12.80
10058;BMP180;5068;51.286;7.518;2023-04-24T03:25:04;97936.00;;;12.80
10058;BMP180;5068;51.286;7.518;2023-04-24T03:26:38;97936.00;;;12.80
10058;BMP180;5068;51.286;7.518;2023-04-24T03:28:39;97943.00;;;12.70
10058;BMP180;5068;51.286;7.518;2023-04-24T03:30:13;97945.00;;;12.70
10058;BMP180;5068;51.286;7.518;2023-04-24T03:31:51;97936.00;;;12.70
10058;BMP180;5068;51.286;7.518;2023-04-24T03:33:25;97938.00;;;12.70
10058;BMP180;5068;51.286;7.518;2023-04-24T03:35:07;97944.00;;;12.70
10058;BMP180;5068;51.286;7.518;2023-04-24T03:36:45;97935.00;;;12.70
10058;BMP180;5068;51.286;7.518;2023-04-24T03:38:20;97939.00;;;12.70
10058;BMP180;5068;51.286;7.518;2023-04-24T03:40:01;97939.00;;;12.70
10058;BMP180;5068;51.286;7.518;2023-04-24T03:41:33;97938.00;;;12.70
10058;BMP180;5068;51.286;7.518;2023-04-24T03:43:14;97944.00;;;12.70
10058;BMP180;5068;51.286;7.518;2023-04-24T03:44:48;97935.00;;;12.70
10058;BMP180;5068;51.286;7.518;2023-04-24T03:46:22;97935.00;;;12.70
10058;BMP180;5068;51.286;7.518;2023-04-24T03:47:59;97940.00;;;12.70
10058;BMP180;5068;51.286;7.518;2023-04-24T03:49:33;97939.00;;;12.70
10058;BMP180;5068;51.286;7.518;2023-04-24T03:51:06;97944.00;;;12.70
10058;BMP180;5068;51.286;7.518;2023-04-24T03:52:41;97941.00;;;12.70
10058;BMP180;5068;51.286;7.518;2023-04-24T03:54:17;97942.00;;;12.70
10058;BMP180;5068;51.286;7.518;2023-04-24T03:55:50;97948.00;;;12.70
10058;BMP180;5068;51.286;7.518;2023-04-24T03:57:24;97939.00;;;12.70
10058;BMP180;5068;51.286;7.518;2023-04-24T03:59:12;97941.00;;;12.70
10058;BMP180;5068;51.286;7.518;2023-04-24T04:00:49;97941.00;;;12.70
10058;BMP180;5068;51.286;7.518;2023-04-24T04:02:46;97944.00;;;12.70
10058;BMP180;5068;51.286;7.518;2023-04-24T04:04:19;97947.00;;;12.70
10058;BMP180;5068;51.286;7.518;2023-04-24T04:05:52;97946.00;;;12.70
10058;BMP180;5068;51.286;7.518;2023-04-24T04:07:26;97943.00;;;12.70
10058;BMP180;5068;51.286;7.518;2023-04-24T04:08:59;97934.00;;;12.70
10058;BMP180;5068;51.286;7.518;2023-04-24T04:10:34;97939.00;;;12.70
10058;BMP180;5068;51.286;7.518;2023-04-24T04:12:09;97950.00;;;12.60
10058;BMP180;5068;51.286;7.518;2023-04-24T04:13:43;97947.00;;;12.60
10058;BMP180;5068;51.286;7.518;2023-04-24T04:15:17;97939.00;;;12.60
10058;BMP180;5068;51.286;7.518;2023-04-24T04:16:52;97944.00;;;12.60
10058;BMP180;5068;51.286;7.518;2023-04-24T04:18:26;97947.00;;;12.60
10058;BMP180;5068;51.286;7.518;2023-04-24T04:19:59;97948.00;;;12.60
10058;BMP180;5068;51.286;7.518;2023-04-24T04:21:33;97950.00;;;12.60
10058;BMP180;5068;51.286;7.518;2023-04-24T04:23:16;97949.00;;;12.60
10058;BMP180;5068;51.286;7.518;2023-04-24T04:25:08;97945.00;;;12.60
10058;BMP180;5068;51.286;7.518;2023-04-24T04:26:41;97949.00;;;12.60
10058;BMP180;5068;51.286;7.518;2023-04-24T04:28:29;97946.00;;;12.60
10058;BMP180;5068;51.286;7.518;2023-04-24T04:30:05;97939.00;;;12.60
10058;BMP180;5068;51.286;7.518;2023-04-24T04:31:47;97942.00;;;12.60
10058;BMP180;5068;51.286;7.518;2023-04-24T04:33:22;97941.00;;;12.60
10058;BMP180;5068;51.286;7.518;2023-04-24T04:34:54;97946.00;;;12.60
10058;BMP180;5068;51.286;7.518;2023-04-24T04:36:31;97948.00;;;12.60
10058;BMP180;5068;51.286;7.518;2023-04-24T04:38:23;97949.00;;;12.50
10058;BMP180;5068;51.286;7.518;2023-04-24T04:40:04;97942.00;;;12.50
10058;BMP180;5068;51.286;7.518;2023-04-24T04:41:45;97947.00;;;12.50
10058;BMP180;5068;51.286;7.518;2023-04-24T04:43:23;97952.00;;;12.50
10058;BMP180;5068;51.286;7.518;2023-04-24T04:44:58;97947.00;;;12.60
10058;BMP180;5068;51.286;7.518;2023-04-24T04:46:40;97951.00;;;12.60
10058;BMP180;5068;51.286;7.518;2023-04-24T04:48:24;97950.00;;;12.60
10058;BMP180;5068;51.286;7.518;2023-04-24T04:49:57;97947.00;;;12.60
10058;BMP180;5068;51.286;7.518;2023-04-24T04:51:32;97947.00;;;12.60
10058;BMP180;5068;51.286;7.518;2023-04-24T04:53:06;97951.00;;;12.60
10058;BMP180;5068;51.286;7.518;2023-04-24T04:54:42;97948.00;;;12.60
10058;BMP180;5068;51.286;7.518;2023-04-24T04:56:16;97950.00;;;12.60
10058;BMP180;5068;51.286;7.518;2023-04-24T04:57:51;97948.00;;;12.60
10058;BMP180;5068;51.286;7.518;2023-04-24T04:59:24;97950.00;;;12.60
10058;BMP180;5068;51.286;7.518;2023-04-24T05:01:04;97953.00;;;12.60
10058;BMP180;5068;51.286;7.518;2023-04-24T05:02:44;97955.00;;;12.60
10058;BMP180;5068;51.286;7.518;2023-04-24T05:04:19;97947.00;;;12.60
10058;BMP180;5068;51.286;7.518;2023-04-24T05:05:53;97958.00;;;12.60
10058;BMP180;5068;51.286;7.518;2023-04-24T05:07:26;97952.00;;;12.50
10058;BMP180;5068;51.286;7.518;2023-04-24T05:09:00;97947.00;;;12.50
10058;BMP180;5068;51.286;7.518;2023-04-24T05:10:51;97953.00;;;12.50
10058;BMP180;5068;51.286;7.518;2023-04-24T05:12:24;97959.00;;;12.40
10058;BMP180;5068;51.286;7.518;2023-04-24T05:13:58;97955.00;;;12.40
10058;BMP180;5068;51.286;7.518;2023-04-24T05:15:39;97956.00;;;12.40
10058;BMP180;5068;51.286;7.518;2023-04-24T05:17:12;97955.00;;;12.40
10058;BMP180;5068;51.286;7.518;2023-04-24T05:18:45;97949.00;;;12.40
10058;BMP180;5068;51.286;7.518;2023-04-24T05:20:24;97953.00;;;12.50
10058;BMP180;5068;51.286;7.518;2023-04-24T05:21:58;97954.00;;;12.40
10058;BMP180;5068;51.286;7.518;2023-04-24T05:23:35;97955.00;;;12.40
10058;BMP180;5068;51.286;7.518;2023-04-24T05:25:09;97957.00;;;12.40
10058;BMP180;5068;51.286;7.518;2023-04-24T05:26:50;97959.00;;;12.40
10058;BMP180;5068;51.286;7.518;2023-04-24T05:28:28;97969.00;;;12.40
10058;BMP180;5068;51.286;7.518;2023-04-24T05:30:10;97954.00;;;12.40
10058;BMP180;5068;51.286;7.518;2023-04-24T05:31:44;97970.00;;;12.40
10058;BMP180;5068;51.286;7.518;2023-04-24T05:33:17;97971.00;;;12.40
10058;BMP180;5068;51.286;7.518;2023-04-24T05:34:50;97967.00;;;12.50
10058;BMP180;5068;51.286;7.518;2023-04-24T05:36:25;97969.00;;;12.50
10058;BMP180;5068;51.286;7.518;2023-04-24T05:37:59;97969.00;;;12.50
10058;BMP180;5068;51.286;7.518;2023-04-24T05:39:32;97971.00;;;12.50
10058;BMP180;5068;51.286;7.518;2023-04-24T05:41:05;97973.00;;;12.50
10058;BMP180;5068;51.286;7.518;2023-04-24T05:42:39;97965.00;;;12.50
10058;BMP180;5068;51.286;7.518;2023-04-24T05:44:12;97973.00;;;12.50
10058;BMP180;5068;51.286;7.518;2023-04-24T05:45:46;97979.00;;;12.50
10058;BMP180;5068;51.286;7.518;2023-04-24T05:47:20;97986.00;;;12.40
10058;BMP180;5068;51.286;7.518;2023-04-24T05:48:54;97987.00;;;12.40
10058;BMP180;5068;51.286;7.518;2023-04-24T05:50:27;97986.00;;;12.40
10058;BMP180;5068;51.286;7.518;2023-04-24T05:52:02;97988.00;;;12.40
10058;BMP180;5068;51.286;7.518;2023-04-24T05:53:37;97985.00;;;12.40
10058;BMP180;5068;51.286;7.518;2023-04-24T05:55:11;97977.00;;;12.40
10058;BMP180;5068;51.286;7.518;2023-04-24T05:56:46;97975.00;;;12.40
10058;BMP180;5068;51.286;7.518;2023-04-24T05:58:27;97983.00;;;12.40
10058;BMP180;5068;51.286;7.518;2023-04-24T06:00:00;97980.00;;;12.40
10058;BMP180;5068;51.286;7.518;2023-04-24T06:01:34;97973.00;;;12.30
10058;BMP180;5068;51.286;7.518;2023-04-24T06:03:16;97979.00;;;12.30
10058;BMP180;5068;51.286;7.518;2023-04-24T06:04:52;97970.00;;;12.30
10058;BMP180;5068;51.286;7.518;2023-04-24T06:06:25;97971.00;;;12.30
10058;BMP180;5068;51.286;7.518;2023-04-24T06:08:01;97976.00;;;12.30
10058;BMP180;5068;51.286;7.518;2023-04-24T06:09:38;97980.00;;;12.30
10058;BMP180;5068;51.286;7.518;2023-04-24T06:11:12;97975.00;;;12.30
10058;BMP180;5068;51.286;7.518;2023-04-24T06:12:45;97980.00;;;12.30
10058;BMP180;5068;51.286;7.518;2023-04-24T06:14:21;97981.00;;;12.30
10058;BMP180;5068;51.286;7.518;2023-04-24T06:16:14;97978.00;;;12.30
10058;BMP180;5068;51.286;7.518;2023-04-24T06:17:54;97975.00;;;12.30
10058;BMP180;5068;51.286;7.518;2023-04-24T06:19:27;97981.00;;;12.20
10058;BMP180;5068;51.286;7.518;2023-04-24T06:21:01;97985.00;;;12.20
10058;BMP180;5068;51.286;7.518;2023-04-24T06:22:34;97991.00;;;12.20
10058;BMP180;5068;51.286;7.518;2023-04-24T06:24:09;97987.00;;;12.20
10058;BMP180;5068;51.286;7.518;2023-04-24T06:25:43;97993.00;;;12.20
10058;BMP180;5068;51.286;7.518;2023-04-24T06:27:17;97990.00;;;12.10
10058;BMP180;5068;51.286;7.518;2023-04-24T06:28:50;97998.00;;;12.10
10058;BMP180;5068;51.286;7.518;2023-04-24T06:30:26;97994.00;;;12.10
10058;BMP180;5068;51.286;7.518;2023-04-24T06:32:00;97999.00;;;12.10
10058;BMP180;5068;51.286;7.518;2023-04-24T06:33:33;97994.00;;;12.00
10058;BMP180;5068;51.286;7.518;2023-04-24T06:35:08;97998.00;;;12.10
10058;BMP180;5068;51.286;7.518;2023-04-24T06:36:42;97993.00;;;12.10
10058;BMP180;5068;51.286;7.518;2023-04-24T06:38:17;97997.00;;;12.10
10058;BMP180;5068;51.286;7.518;2023-04-24T06:39:51;98002.00;;;12.10
10058;BMP180;5068;51.286;7.518;2023-04-24T06:41:24;97991.00;;;12.00
10058;BMP180;5068;51.286;7.518;2023-04-24T06:42:58;97988.00;;;12.00
10058;BMP180;5068;51.286;7.518;2023-04-24T06:44:31;97994.00;;;12.00
10058;BMP180;5068;51.286;7.518;2023-04-24T06:46:09;97996.00;;;12.00
10058;BMP180;5068;51.286;7.518;2023-04-24T06:47:43;97987.00;;;12.00
10058;BMP180;5068;51.286;7.518;2023-04-24T06:49:17;97987.00;;;12.00
10058;BMP180;5068;51.286;7.518;2023-04-24T06:50:50;97996.00;;;12.00
10058;BMP180;5068;51.286;7.518;2023-04-24T06:52:24;97993.00;;;12.00
10058;BMP180;5068;51.286;7.518;2023-04-24T06:53:57;97994.00;;;12.00
10058;BMP180;5068;51.286;7.518;2023-04-24T06:55:32;97996.00;;;11.90
10058;BMP180;5068;51.286;7.518;2023-04-24T06:57:05;97994.00;;;11.90
10058;BMP180;5068;51.286;7.518;2023-04-24T06:58:38;97996.00;;;11.90
10058;BMP180;5068;51.286;7.518;2023-04-24T07:00:13;97988.00;;;11.90
10058;BMP180;5068;51.286;7.518;2023-04-24T07:01:47;97990.00;;;11.90
10058;BMP180;5068;51.286;7.518;2023-04-24T07:03:20;97987.00;;;11.90
10058;BMP180;5068;51.286;7.518;2023-04-24T07:04:54;97988.00;;;11.90
10058;BMP180;5068;51.286;7.518;2023-04-24T07:06:27;97986.00;;;12.00
10058;BMP180;5068;51.286;7.518;2023-04-24T07:08:03;97987.00;;;11.90
10058;BMP180;5068;51.286;7.518;2023-04-24T07:09:38;97986.00;;;12.00
10058;BMP180;5068;51.286;7.518;2023-04-24T07:11:16;97988.00;;;11.90
10058;BMP180;5068;51.286;7.518;2023-04-24T07:12:49;97990.00;;;11.90
10058;BMP180;5068;51.286;7.518;2023-04-24T07:14:22;97990.00;;;11.90
10058;BMP180;5068;51.286;7.518;2023-04-24T07:15:56;97983.00;;;11.90
10058;BMP180;5068;51.286;7.518;2023-04-24T07:17:29;97986.00;;;11.90
10058;BMP180;5068;51.286;7.518;2023-04-24T07:19:02;97988.00;;;11.90
10058;BMP180;5068;51.286;7.518;2023-04-24T07:20:36;97989.00;;;11.90
10058;BMP180;5068;51.286;7.518;2023-04-24T07:22:09;97992.00;;;11.90
10058;BMP180;5068;51.286;7.518;2023-04-24T07:23:43;97986.00;;;11.80
10058;BMP180;5068;51.286;7.518;2023-04-24T07:25:16;97997.00;;;11.90
10058;BMP180;5068;51.286;7.518;2023-04-24T07:26:52;97985.00;;;11.80
10058;BMP180;5068;51.286;7.518;2023-04-24T07:28:25;97983.00;;;11.80
10058;BMP180;5068;51.286;7.518;2023-04-24T07:29:58;97992.00;;;11.80
10058;BMP180;5068;51.286;7.518;2023-04-24T07:31:32;97982.00;;;11.80
10058;BMP180;5068;51.286;7.518;2023-04-24T07:33:05;97987.00;;;11.80
10058;BMP180;5068;51.286;7.518;2023-04-24T07:34:39;97997.00;;;11.80
10058;BMP180;5068;51.286;7.518;2023-04-24T07:36:12;97992.00;;;11.80
10058;BMP180;5068;51.286;7.518;2023-04-24T07:37:48;97996.00;;;11.80
10058;BMP180;5068;51.286;7.518;2023-04-24T07:39:22;97990.00;;;11.80
10058;BMP180;5068;51.286;7.518;2023-04-24T07:40:56;97990.00;;;11.80
10058;BMP180;5068;51.286;7.518;2023-04-24T07:42:30;97993.00;;;11.80
10058;BMP180;5068;51.286;7.518;2023-04-24T07:44:06;97997.00;;;11.80
10058;BMP180;5068;51.286;7.518;2023-04-24T07:45:40;97989.00;;;11.80
10058;BMP180;5068;51.286;7.518;2023-04-24T07:47:13;97992.00;;;11.70
10058;BMP180;5068;51.286;7.518;2023-04-24T07:48:47;98007.00;;;11.70
10058;BMP180;5068;51.286;7.518;2023-04-24T07:50:32;98006.00;;;11.70
10058;BMP180;5068;51.286;7.518;2023-04-24T07:52:06;97996.00;;;11.70
10058;BMP180;5068;51.286;7.518;2023-04-24T07:53:39;98005.00;;;11.70
10058;BMP180;5068;51.286;7.518;2023-04-24T07:55:12;98007.00;;;11.70
10058;BMP180;5068;51.286;7.518;2023-04-24T07:56:46;98014.00;;;11.70
10058;BMP180;5068;51.286;7.518;2023-04-24T07:58:20;98001.00;;;11.70
10058;BMP180;5068;51.286;7.518;2023-04-24T07:59:53;98010.00;;;11.70
10058;BMP180;5068;51.286;7.518;2023-04-24T08:01:27;98013.00;;;11.70
10058;BMP180;5068;51.286;7.518;2023-04-24T08:03:00;98009.00;;;11.60
10058;BMP180;5068;51.286;7.518;2023-04-24T08:04:34;98010.00;;;11.60
10058;BMP180;5068;51.286;7.518;2023-04-24T08:06:07;98010.00;;;11.60
10058;BMP180;5068;51.286;7.518;2023-04-24T08:07:40;98013.00;;;11.50
10058;BMP180;5068;51.286;7.518;2023-04-24T08:09:15;98014.00;;;11.50
10058;BMP180;5068;51.286;7.518;2023-04-24T08:10:48;98022.00;;;11.50
10058;BMP180;5068;51.286;7.518;2023-04-24T08:12:21;98021.00;;;11.50
10058;BMP180;5068;51.286;7.518;2023-04-24T08:13:56;98018.00;;;11.60
10058;BMP180;5068;51.286;7.518;2023-04-24T08:15:29;98028.00;;;11.60
10058;BMP180;5068;51.286;7.518;2023-04-24T08:17:03;98029.00;;;11.60
10058;BMP180;5068;51.286;7.518;2023-04-24T08:18:36;98038.00;;;11.60
10058;BMP180;5068;51.286;7.518;2023-04-24T08:20:11;98054.00;;;11.60
10058;BMP180;5068;51.286;7.518;2023-04-24T08:21:46;98033.00;;;11.60
10058;BMP180;5068;51.286;7.518;2023-04-24T08:23:19;98039.00;;;11.60
10058;BMP180;5068;51.286;7.518;2023-04-24T08:24:54;98036.00;;;11.60
10058;BMP180;5068;51.286;7.518;2023-04-24T08:26:28;98028.00;;;11.60
10058;BMP180;5068;51.286;7.518;2023-04-24T08:28:02;98028.00;;;11.60
10058;BMP180;5068;51.286;7.518;2023-04-24T08:29:38;98042.00;;;11.60
10058;BMP180;5068;51.286;7.518;2023-04-24T08:31:11;98042.00;;;11.60
10058;BMP180;5068;51.286;7.518;2023-04-24T08:32:44;98039.00;;;11.60
10058;BMP180;5068;51.286;7.518;2023-04-24T08:34:17;98038.00;;;11.60
10058;BMP180;5068;51.286;7.518;2023-04-24T08:35:51;98045.00;;;11.70
10058;BMP180;5068;51.286;7.518;2023-04-24T08:37:26;98066.00;;;11.70
10058;BMP180;5068;51.286;7.518;2023-04-24T08:39:00;98060.00;;;11.60
10058;BMP180;5068;51.286;7.518;2023-04-24T08:40:35;98076.00;;;11.60
10058;BMP180;5068;51.286;7.518;2023-04-24T08:42:08;98079.00;;;11.50
10058;BMP180;5068;51.286;7.518;2023-04-24T08:43:42;98079.00;;;11.50
10058;BMP180;5068;51.286;7.518;2023-04-24T08:45:17;98084.00;;;11.40
10058;BMP180;5068;51.286;7.518;2023-04-24T08:46:51;98080.00;;;11.30
10058;BMP180;5068;51.286;7.518;2023-04-24T08:48:27;98082.00;;;11.20
10058;BMP180;5068;51.286;7.518;2023-04-24T08:50:04;98072.00;;;11.10
10058;BMP180;5068;51.286;7.518;2023-04-24T08:51:39;98082.00;;;11.00
10058;BMP180;5068;51.286;7.518;2023-04-24T08:53:13;98076.00;;;11.00
10058;BMP180;5068;51.286;7.518;2023-04-24T08:54:48;98075.00;;;11.00
10058;BMP180;5068;51.286;7.518;2023-04-24T08:56:22;98077.00;;;11.00
10058;BMP180;5068;51.286;7.518;2023-04-24T08:57:56;98084.00;;;11.00
10058;BMP180;5068;51.286;7.518;2023-04-24T08:59:31;98092.00;;;10.90
10058;BMP180;5068;51.286;7.518;2023-04-24T09:01:06;98089.00;;;11.00
10058;BMP180;5068;51.286;7.518;2023-04-24T09:02:43;98080.00;;;11.00
10058;BMP180;5068;51.286;7.518;2023-04-24T09:04:18;98090.00;;;11.00
10058;BMP180;5068;51.286;7.518;2023-04-24T09:05:55;98090.00;;;11.00
10058;BMP180;5068;51.286;7.518;2023-04-24T09:07:31;98090.00;;;11.00
10058;BMP180;5068;51.286;7.518;2023-04-24T09:09:08;98101.00;;;11.00
10058;BMP180;5068;51.286;7.518;2023-04-24T09:10:44;98107.00;;;11.00
10058;BMP180;5068;51.286;7.518;2023-04-24T09:12:19;98115.00;;;11.00
10058;BMP180;5068;51.286;7.518;2023-04-24T09:13:54;98110.00;;;11.00